PASV/SVW METAR and TAF weather

Enter ICAO airport designator
Station Type Date Time Source
PASV METAR 2020/09/27 14:55 UTC NOAA

PASV 271455Z AUTO 27003KT 10SM FEW065 BKN150 03/02 A2920 RMK AO2 SLP897 T00280020 57027 $


Station Type Date Time Source
PASV Decoded METAR 2020/09/27 14:55 UTC NOAA

Sparrevohn Airways Facilities Sector, AK, United States (PASV) 61-06N 155-34W
Sep 27, 2020 - 10:55 AM EDT / 2020.09.27 1455 UTC
Wind: from the W (270 degrees) at 3 MPH (3 KT):0
Visibility: 10 mile(s):0
Sky conditions: mostly cloudy
Temperature: 37.0 F (2.8 C)
Dew Point: 35.6 F (2.0 C)
Relative Humidity: 94%
Pressure (altimeter): 29.2 in. Hg (988 hPa)
Pressure tendency: 0.08 inches (2.7 hPa) lower than three hours ago
ob: PASV 271455Z AUTO 27003KT 10SM FEW065 BKN150 03/02 A2920 RMK AO2 SLP897 T00280020 57027
cycle: 15

Station Type Date Time Source
PASV TAF 2012/01/12 14:57 UTC NOAA

TAF
AMD PASV 1214/1320 33010G15KT 4800 -SN BLSN SCT003 SCT110 QNH2984INS
BECMG 1221/1222 VRB06KT 9999 NSW FEW010 SCT110 QNH3000INS LIMITED METWATCH TM25/1300Z TM37/1315Z
AMD 121453

Example: see airport list